ADDS METAR Data INFO
IDs: Format: Raw Decoded Include TAF

Data at: 1352 UTC 18 Jan 2018

KHHF 181335Z AUTO 00000KT 10SM CLR M05/M16 A3025 RMK AO2 T10501165
KHHF 181315Z AUTO 00000KT 10SM CLR M04/M17 A3025 RMK AO2 T10441166
KHHF 181255Z AUTO 23005KT 10SM CLR M04/M17 A3026 RMK AO2 T10431166
KHHF 181235Z AUTO 23004KT 10SM CLR M05/M17 A3026 RMK AO2 T10521172
KHHF 181215Z AUTO 00000KT 10SM CLR M05/M17 A3027 RMK AO2 T10531175
KHHF 181155Z AUTO 20005KT 10SM CLR M06/M18 A3027 RMK AO2 T10651178 11034 21073
KHHF 181135Z AUTO 00000KT 10SM CLR M07/M17 A3028 RMK AO2 T10711172
KHHF 181115Z AUTO 21004KT 10SM CLR M05/M18 A3028 RMK AO2 T10501179
KHHF 181055Z AUTO 00000KT 10SM CLR M06/M16 A3029 RMK AO2 T10611164
KHHF 181035Z AUTO 21003KT 10SM CLR M04/M18 A3029 RMK AO2 T10421178
KHHF 181015Z AUTO 22004KT 10SM CLR M05/M17 A3030 RMK AO2 T10551171
KHHF 180955Z AUTO 22005KT 10SM CLR M04/M17 A3030 RMK AO2 T10401169
KHHF 180935Z AUTO 00000KT 10SM CLR M06/M16 A3031 RMK AO2 T10581161
KHHF 180915Z AUTO 00000KT 10SM CLR M05/M14 A3031 RMK AO2 T10531145
KHHF 180855Z AUTO 00000KT 10SM CLR M05/M14 A3031 RMK AO2 T10541141
KHHF 180835Z AUTO 01003KT 10SM CLR M06/M15 A3032 RMK AO2 T10621147
KHHF 180815Z AUTO 00000KT 10SM CLR M06/M14 A3031 RMK AO2 T10561143
KHHF 180755Z AUTO 00000KT 10SM CLR M07/M15 A3032 RMK AO2 T10661146
KHHF 180735Z AUTO 25003KT 10SM CLR M05/M14 A3032 RMK AO2 T10551144
KHHF 180715Z AUTO 23005KT 10SM CLR M05/M14 A3033 RMK AO2 T10511145
KHHF 180655Z AUTO 23003KT 10SM CLR M05/M15 A3034 RMK AO2 T10501147
KHHF 180635Z AUTO 24004KT 10SM CLR M05/M15 A3035 RMK AO2 T10481148
KHHF 180615Z AUTO 24005KT 10SM CLR M04/M15 A3035 RMK AO2 T10421150
KHHF 180555Z AUTO 23006KT 10SM CLR M04/M15 A3036 RMK AO2 T10361152 10038 21038 400911169
KHHF 180535Z AUTO 24005KT 10SM CLR M03/M16 A3036 RMK AO2 T10271156
KHHF 180515Z AUTO 23008KT 10SM CLR M02/M16 A3037 RMK AO2 T10251156
KHHF 180455Z AUTO 22008KT 10SM CLR M02/M16 A3037 RMK AO2 T10251160
KHHF 180435Z AUTO 23007KT 10SM CLR M03/M16 A3037 RMK AO2 T10261161
KHHF 180415Z AUTO 23010KT 10SM CLR M02/M16 A3037 RMK AO2 T10181161
KHHF 180355Z AUTO 23009KT 10SM CLR M02/M16 A3037 RMK AO2 T10181162
KHHF 180335Z AUTO 21009KT 10SM CLR 00/M16 A3038 RMK AO2 T10031161
KHHF 180315Z AUTO 20010G18KT 10SM CLR 00/M16 A3038 RMK AO2 T00001161
KHHF 180255Z AUTO 20010G20KT 10SM CLR 00/M16 A3038 RMK AO2 T00041160
KHHF 180235Z AUTO 19013G19KT 10SM CLR 01/M16 A3038 RMK AO2 T00061160
KHHF 180215Z AUTO 22007KT 10SM CLR M02/M17 A3038 RMK AO2 T10171166
KHHF 180155Z AUTO 24007KT 10SM CLR M01/M17 A3039 RMK AO2 T10131166
KHHF 180135Z AUTO 24005KT 10SM CLR 00/M16 A3039 RMK AO2 T00031165
KHHF 180115Z AUTO 20010KT 10SM CLR 02/M16 A3038 RMK AO2 T00151161
KHHF 180055Z AUTO 19011KT 10SM CLR 02/M16 A3038 RMK AO2 T00151161
KHHF 180035Z AUTO 19010KT 10SM CLR 02/M16 A3038 RMK AO2 T00201158
KHHF 180015Z AUTO 19009KT 10SM CLR 03/M16 A3038 RMK AO2 T00271156
KHHF 172355Z AUTO 18010KT 10SM CLR 04/M15 A3037 RMK AO2 T00401152 10091 20031
KHHF 172335Z AUTO 19011KT 10SM CLR 06/M14 A3037 RMK AO2 T00551143
KHHF 172315Z AUTO 19011KT 10SM CLR 06/M15 A3037 RMK AO2 T00631146
KHHF 172255Z AUTO 19014G21KT 10SM CLR 08/M14 A3036 RMK AO2 T00751138
KHHF 172235Z AUTO 20014G18KT 10SM CLR 08/M13 A3036 RMK AO2 T00801135
KHHF 172215Z AUTO 17010G18KT 10SM CLR 08/M16 A3036 RMK AO2 T00751156
KHHF 172155Z AUTO 18013KT 10SM CLR 08/M16 A3036 RMK AO2 T00801156
KHHF 172135Z AUTO 18010KT 10SM CLR 09/M15 A3036 RMK AO2 T00861148
KHHF 172115Z AUTO 20013G19KT 10SM CLR 09/M13 A3036 RMK AO2 T00891132
KHHF 172055Z AUTO 20014G19KT 10SM CLR 09/M14 A3037 RMK AO2 T00851141
KHHF 172035Z AUTO 20014G21KT 10SM CLR 08/M14 A3038 RMK AO2 T00821142
KHHF 172015Z AUTO 20016G21KT 10SM CLR 08/M15 A3038 RMK AO2 T00751147
KHHF 171955Z AUTO 20017G23KT 10SM CLR 07/M16 A3039 RMK AO2 T00731156
KHHF 171935Z AUTO 19013KT 10SM CLR 07/M16 A3040 RMK AO2 T00651163
KHHF 171915Z AUTO 18014G18KT 10SM CLR 06/M17 A3042 RMK AO2 T00571172
KHHF 171855Z AUTO 20014G18KT 10SM CLR 06/M17 A3043 RMK AO2 T00551170
KHHF 171835Z AUTO 19015KT 10SM CLR 05/M17 A3044 RMK AO2 T00461171
KHHF 171815Z AUTO 19012G17KT 10SM CLR 04/M17 A3046 RMK AO2 T00351175
KHHF 171755Z AUTO 19013G16KT 10SM CLR 03/M17 A3047 RMK AO2 T00321173 10032 21115
KHHF 171735Z AUTO 20010G15KT 10SM CLR 03/M17 A3048 RMK AO2 T00261169
KHHF 171715Z AUTO 20011G16KT 10SM CLR 01/M17 A3049 RMK AO2 T00141172 PWINO
KHHF 171655Z AUTO 18008KT 10SM CLR 00/M18 A3050 RMK AO2 T10051184
KHHF 171635Z AUTO 20009KT 10SM CLR M02/M19 A3051 RMK AO2 T10181187
KHHF 171615Z AUTO 20008KT 10SM CLR M03/M19 A3051 RMK AO2 T10291191
KHHF 171555Z AUTO 21008KT 10SM CLR M04/M20 A3051 RMK AO2 T10431196
KHHF 171535Z AUTO 19005KT 10SM CLR M06/M20 A3051 RMK AO2 T10601202
KHHF 171515Z AUTO 20006KT 10SM CLR M07/M21 A3050 RMK AO2 T10741207
KHHF 171455Z AUTO 18006KT 10SM CLR M08/M21 A3050 RMK AO2 T10851212
KHHF 171435Z AUTO 00000KT 10SM CLR M10/M21 A3050 RMK AO2 T10981211
KHHF 171415Z AUTO 21006KT 10SM CLR M11/M21 A3050 RMK AO2 T11071215
KHHF 171355Z AUTO 21006KT 10SM CLR M11/M22 A3050 RMK AO2 T11141216
KHHF 171335Z AUTO 19004KT 10SM CLR M11/M22 A3050 RMK AO2 T11061222
KHHF 171315Z AUTO 00000KT 10SM CLR M11/M22 A3051 RMK AO2 T11081220
KHHF 171255Z AUTO 21007KT 10SM CLR M10/M22 A3051 RMK AO2 T11021218
KHHF 171235Z AUTO 21009KT 10SM CLR M10/M22 A3051 RMK AO2 T11021216
KHHF 171215Z AUTO 21009KT 10SM CLR M10/M21 A3051 RMK AO2 T11021213
KHHF 171200Z AUTO 21006KT 10SM CLR M10/M21 A3051 RMK AO2 T11051213
KHHF 171135Z AUTO 20004KT 10SM CLR M11/M21 A3052 RMK AO2 T11111209
KHHF 171115Z AUTO 00000KT 10SM CLR M11/M21 A3053 RMK AO2 T11101210
KHHF 171055Z AUTO 22004KT 10SM CLR M11/M21 A3054 RMK AO2 T11071210 PNO
KHHF 171035Z AUTO 21005KT 10SM CLR M11/M21 A3054 RMK AO2 T11061206
KHHF 171015Z AUTO 21005KT 10SM CLR M11/M21 A3055 RMK AO2 T11101206
KHHF 170955Z AUTO 21005KT 10SM CLR M11/M21 A3056 RMK AO2 T11131208
KHHF 170935Z AUTO 21004KT 10SM CLR M11/M21 A3056 RMK AO2 T11141210
KHHF 170915Z AUTO 22004KT 10SM CLR M11/M21 A3056 RMK AO2 T11121210
KHHF 170855Z AUTO 20005KT 10SM CLR M11/M21 A3057 RMK AO2 T11141206
KHHF 170835Z AUTO 20005KT 10SM CLR M12/M21 A3057 RMK AO2 T11201211
KHHF 170815Z AUTO 20006KT 10SM CLR M13/M21 A3057 RMK AO2 T11301210
KHHF 170755Z AUTO 22005KT 10SM CLR M15/M22 A3058 RMK AO2 T11501221
KHHF 170735Z AUTO 23003KT 10SM CLR M15/M23 A3058 RMK AO2 T11531226
KHHF 170715Z AUTO 00000KT 10SM CLR M16/M23 A3058 RMK AO2 T11581232
KHHF 170655Z AUTO 00000KT 10SM CLR M16/M23 A3059 RMK AO2 T11651234
KHHF 170635Z AUTO 24004KT 10SM CLR M16/M23 A3060 RMK AO2 T11631230
KHHF 170615Z AUTO 24004KT 10SM CLR M16/M23 A3060 RMK AO2 T11651234
KHHF 170555Z AUTO 24004KT 10SM CLR M17/M24 A3061 RMK AO2 T11681238 11052 21168 410311168
KHHF 170535Z AUTO 24005KT 10SM CLR M16/M24 A3061 RMK AO2 T11641240
KHHF 170515Z AUTO 00000KT 10SM CLR M16/M24 A3061 RMK AO2 T11611241
KHHF 170455Z AUTO 23003KT 10SM CLR M15/M24 A3061 RMK AO2 T11551242
KHHF 170435Z AUTO 24003KT 10SM CLR M16/M24 A3061 RMK AO2 T11601245
KHHF 170415Z AUTO 23004KT 10SM CLR M15/M25 A3061 RMK AO2 T11551246
KHHF 170355Z AUTO 24005KT 10SM CLR M16/M25 A3061 RMK AO2 T11571247
KHHF 170335Z AUTO 24005KT 10SM CLR M16/M26 A3061 RMK AO2 T11621261
KHHF 170315Z AUTO 00000KT 10SM CLR M15/M26 A3061 RMK AO2 T11471260
KHHF 170255Z AUTO 23003KT 10SM CLR M15/M26 A3062 RMK AO2 T11521264
KHHF 170235Z AUTO 24005KT 10SM CLR M15/M27 A3062 RMK AO2 T11551267
KHHF 170215Z AUTO 24004KT 10SM CLR M14/M26 A3061 RMK AO2 T11401263
KHHF 170200Z AUTO 00000KT 10SM CLR M16/M27 A3062 RMK AO2 T11571273